Terminal Aerodrome Forecast
Issued by NWS Sioux Falls, SD

Home | Current Version | Previous Version | Graphics & Text | Print | Product List | Glossary On
Versions: 1 2 3 4 5 6 7 8 9 10 11 12 13 14 15
000
FTUS43 KFSD 142326
TAFHON
TAF
KHON 142326Z 1500/1524 09006KT P6SM FEW250
     FM150900 12005KT P6SM BKN200
     FM151200 13005KT P6SM BKN030
     FM151400 13007KT P6SM BKN045
     FM151900 13010KT P6SM -SHRA VCTS BKN045CB BKN080=

USA.gov is the U.S. government's official web portal to all federal, state and local government web resources and services.